sim
Sign-in with your pilot id or email,
or register
Callsign
Passwort

Schedule Details

Flight Number: OEO7685
Departure: Los Angeles International Airport (KLAX) at 23:10
Arrival: Munich Airport (EDDM) at 10:20

Weather Information
Getting current METAR information for KLAX 260253Z 27005KT 10SM FEW007 20/17 A2992 RMK AO2 SLP131 T02000167 53005
Getting current METAR information for EDDM 260250Z 27011KT 9999 SCT016 BKN024 08/06 Q1000 NOSIG

Schedule Frequency

Route Map